Time;durP1;ratioP1;P1;durP2;ratioP2;P2;SDS_P1;SDS_P2;PMS_P1;PMS_P2;Temp;Humidity;BMP_temperature;BMP_pressure;BME280_temperature;BME280_humidity;BME280_pressure;Samples;Min_cycle;Max_cycle;Signal;HPM_P1;HPM_P2
2022/02/17 00:03:03;;;;;;;10.77;4.07;;;19.60;58.00;;;;;;20983305;28;20533;-54
2022/02/17 00:13:05;;;;;;;8.82;3.65;;;19.60;58.30;;;;;;20971727;28;20052;-53
2022/02/17 00:23:08;;;;;;;10.40;3.58;;;19.50;58.70;;;;;;20954016;28;20058;-52
2022/02/17 00:33:09;;;;;;;9.05;3.60;;;19.30;59.00;;;;;;20972370;28;20423;-53
2022/02/17 00:43:11;;;;;;;8.30;3.30;;;19.20;59.20;;;;;;20978343;28;20415;-53
2022/02/17 00:53:13;;;;;;;7.38;3.42;;;19.10;59.70;;;;;;20973506;28;20072;-54
2022/02/17 01:03:15;;;;;;;8.38;2.97;;;19.00;60.00;;;;;;20915433;28;20403;-53
2022/02/17 01:13:16;;;;;;;5.80;2.88;;;18.90;60.30;;;;;;20989231;28;20080;-53
2022/02/17 01:23:18;;;;;;;5.00;2.67;;;18.80;60.50;;;;;;20954715;28;20053;-49
2022/02/17 01:33:21;;;;;;;6.05;2.30;;;18.70;60.80;;;;;;20930931;28;20048;-52
2022/02/17 01:43:24;;;;;;;6.65;2.65;;;18.70;60.80;;;;;;20987257;28;20052;-53
2022/02/17 01:53:26;;;;;;;6.88;2.40;;;18.70;61.10;;;;;;20966758;28;20056;-52
2022/02/17 02:03:28;;;;;;;5.10;2.00;;;18.60;61.30;;;;;;20980228;28;20063;-53
2022/02/17 02:13:29;;;;;;;5.70;2.05;;;18.60;61.40;;;;;;20967793;28;20127;-53
2022/02/17 02:23:34;;;;;;;5.65;1.95;;;18.50;61.40;;;;;;20982675;28;20487;-48
2022/02/17 02:33:37;;;;;;;4.05;1.90;;;18.50;61.50;;;;;;20960270;28;20403;-53
2022/02/17 02:43:51;;;;;;;5.05;2.03;;;18.50;61.60;;;;;;20903884;28;20064;-53
2022/02/17 02:53:59;;;;;;;6.87;1.80;;;18.40;61.80;;;;;;20963540;28;20048;-53
2022/02/17 03:04:04;;;;;;;5.13;2.03;;;18.40;61.90;;;;;;20989689;28;20049;-53
2022/02/17 03:14:09;;;;;;;4.50;1.75;;;18.30;62.20;;;;;;20959593;28;20131;-53
2022/02/17 03:24:13;;;;;;;5.65;2.15;;;18.20;62.20;;;;;;20979455;28;20080;-52
2022/02/17 03:34:16;;;;;;;4.80;1.60;;;18.20;62.40;;;;;;20954978;28;20044;-53
2022/02/17 03:44:19;;;;;;;2.80;1.40;;;18.20;62.40;;;;;;20996935;28;20057;-53
2022/02/17 03:54:24;;;;;;;2.70;1.67;;;18.20;62.50;;;;;;20976254;28;20080;-53
2022/02/17 04:04:26;;;;;;;3.15;1.70;;;18.20;62.60;;;;;;20980686;28;20071;-53
2022/02/17 04:14:28;;;;;;;3.47;1.73;;;18.20;62.60;;;;;;20948480;28;20048;-53
2022/02/17 04:24:30;;;;;;;3.17;1.35;;;18.10;62.60;;;;;;20982689;28;20048;-53
2022/02/17 04:34:32;;;;;;;4.32;1.30;;;18.10;62.60;;;;;;20986545;28;20063;-53
2022/02/17 04:44:35;;;;;;;4.07;1.50;;;18.00;62.60;;;;;;20985319;28;20052;-54
2022/02/17 04:54:39;;;;;;;2.95;1.40;;;18.00;62.70;;;;;;20983939;28;20041;-55
2022/02/17 05:04:41;;;;;;;4.55;1.38;;;18.00;62.70;;;;;;20986092;28;20098;-54
2022/02/17 05:14:43;;;;;;;1.77;1.23;;;18.00;62.80;;;;;;20933311;28;20176;-53
2022/02/17 05:24:45;;;;;;;3.03;1.42;;;17.90;63.00;;;;;;20948019;28;20534;-55
2022/02/17 05:34:48;;;;;;;2.90;1.70;;;17.90;63.00;;;;;;20972004;28;20537;-52
2022/02/17 05:44:51;;;;;;;1.70;1.20;;;17.80;63.00;;;;;;20966876;28;20049;-54
2022/02/17 05:54:54;;;;;;;1.60;1.10;;;17.70;63.00;;;;;;20958136;28;20094;-53
2022/02/17 06:04:56;;;;;;;2.33;1.23;;;17.80;63.00;;;;;;20973930;28;20083;-52
2022/02/17 06:14:59;;;;;;;8.20;2.60;;;17.80;62.90;;;;;;20951842;28;20051;-49
2022/02/17 06:25:01;;;;;;;10.18;2.47;;;17.80;63.30;;;;;;20958232;28;20049;-53
2022/02/17 06:35:04;;;;;;;7.57;2.55;;;17.80;63.70;;;;;;20973730;28;20254;-50
2022/02/17 06:45:07;;;;;;;7.20;2.42;;;17.70;63.70;;;;;;21002152;28;20057;-50
2022/02/17 06:55:09;;;;;;;16.00;3.35;;;17.70;63.90;;;;;;20984735;28;20348;-50
2022/02/17 07:05:11;;;;;;;7.07;2.05;;;18.80;63.40;;;;;;20918402;28;20118;-51
2022/02/17 07:15:13;;;;;;;5.53;1.75;;;20.30;61.90;;;;;;20917838;28;20083;-50
2022/02/17 07:25:18;;;;;;;4.72;2.30;;;21.40;60.60;;;;;;20984006;28;20121;-50
2022/02/17 07:35:20;;;;;;;6.30;1.95;;;21.60;59.90;;;;;;20997147;28;20469;-51
2022/02/17 07:45:25;;;;;;;4.45;2.08;;;21.60;59.10;;;;;;20996170;28;20160;-51
2022/02/17 07:55:31;;;;;;;8.00;2.15;;;21.10;58.80;;;;;;20996508;28;20526;-51
2022/02/17 08:05:41;;;;;;;5.63;1.87;;;20.60;58.80;;;;;;20995511;28;20056;-51
2022/02/17 08:15:45;;;;;;;6.03;2.37;;;20.10;59.20;;;;;;20987530;28;20106;-51
2022/02/17 08:25:48;;;;;;;7.80;2.13;;;19.70;59.50;;;;;;20991786;28;20064;-52
2022/02/17 08:35:50;;;;;;;4.07;1.90;;;19.60;59.70;;;;;;20964880;28;20062;-52
2022/02/17 08:45:51;;;;;;;8.20;2.20;;;19.30;59.80;;;;;;20991552;28;20060;-51
2022/02/17 08:55:54;;;;;;;4.18;2.08;;;19.20;59.90;;;;;;20959519;28;20050;-51
2022/02/17 09:05:57;;;;;;;6.40;2.20;;;19.00;60.10;;;;;;20976410;28;20048;-50
2022/02/17 09:15:58;;;;;;;6.97;1.95;;;18.90;60.30;;;;;;20982810;28;20156;-50
2022/02/17 09:26:00;;;;;;;8.05;2.63;;;18.70;60.60;;;;;;20957114;28;20048;-50
2022/02/17 09:36:03;;;;;;;6.57;2.20;;;18.70;60.80;;;;;;20988083;28;20052;-48
2022/02/17 09:46:05;;;;;;;6.53;2.60;;;18.70;61.10;;;;;;20982784;28;20048;-51
2022/02/17 09:56:06;;;;;;;3.60;2.15;;;18.70;61.20;;;;;;20964660;28;20079;-52
2022/02/17 10:06:12;;;;;;;6.05;2.30;;;18.80;61.30;;;;;;20985822;28;20395;-54
2022/02/17 10:16:14;;;;;;;4.85;2.17;;;18.90;61.40;;;;;;20985489;28;20128;-55
2022/02/17 10:26:21;;;;;;;6.80;2.38;;;19.00;61.40;;;;;;20981512;28;20048;-54
2022/02/17 10:36:37;;;;;;;4.13;1.90;;;19.10;61.30;;;;;;20984742;28;20090;-55
2022/02/17 10:46:39;;;;;;;4.78;2.00;;;19.20;61.10;;;;;;20984137;28;20084;-55
2022/02/17 10:56:41;;;;;;;5.97;2.10;;;19.30;60.80;;;;;;20932135;28;20515;-55
2022/02/17 11:06:44;;;;;;;4.78;2.10;;;19.30;60.70;;;;;;20960886;28;20056;-54
2022/02/17 11:16:46;;;;;;;6.85;2.35;;;19.40;60.50;;;;;;20984133;28;20102;-54
2022/02/17 11:27:04;;;;;;;6.28;2.50;;;19.50;60.30;;;;;;20922875;28;20053;-53
2022/02/17 11:37:21;;;;;;;5.13;2.47;;;19.50;60.30;;;;;;20987733;28;20070;-54
2022/02/17 11:47:22;;;;;;;3.70;1.80;;;19.60;60.10;;;;;;20915116;28;20049;-54
2022/02/17 11:57:37;;;;;;;5.03;2.35;;;19.60;60.10;;;;;;20965415;28;20132;-54
2022/02/17 12:07:39;;;;;;;3.67;2.00;;;19.70;59.80;;;;;;20995857;28;20105;-51
2022/02/17 12:17:42;;;;;;;2.78;1.63;;;19.80;59.70;;;;;;20994436;28;20045;-50
2022/02/17 12:27:49;;;;;;;5.10;1.80;;;19.90;59.70;;;;;;20974357;28;20480;-50
2022/02/17 12:38:05;;;;;;;3.13;1.60;;;20.00;59.60;;;;;;20993411;28;20155;-51
2022/02/17 12:48:07;;;;;;;2.95;1.48;;;20.00;59.50;;;;;;20992198;28;20044;-52
2022/02/17 12:58:11;;;;;;;2.88;1.75;;;20.20;59.40;;;;;;20992139;28;20052;-50
2022/02/17 13:08:13;;;;;;;3.10;1.80;;;20.20;59.20;;;;;;20989341;28;20062;-52
2022/02/17 13:18:14;;;;;;;3.97;1.60;;;20.30;59.00;;;;;;20990055;28;20058;-58
2022/02/17 13:28:16;;;;;;;3.38;1.70;;;20.40;58.80;;;;;;20988360;28;20056;-52
2022/02/17 13:38:26;;;;;;;3.65;1.58;;;20.50;58.60;;;;;;20988991;28;20048;-55
2022/02/17 13:48:33;;;;;;;2.72;1.50;;;20.60;58.40;;;;;;20987479;28;20458;-56
2022/02/17 13:58:36;;;;;;;2.70;1.48;;;20.60;58.10;;;;;;20987648;28;20106;-55
2022/02/17 14:08:37;;;;;;;4.88;1.90;;;20.60;58.20;;;;;;20986837;28;20044;-55
2022/02/17 14:18:40;;;;;;;3.45;1.65;;;20.60;58.10;;;;;;20958329;28;20060;-54
2022/02/17 14:28:41;;;;;;;2.53;1.40;;;20.60;58.20;;;;;;20900995;28;20049;-54
2022/02/17 14:38:44;;;;;;;3.75;1.88;;;20.60;58.20;;;;;;20985221;28;20048;-52
2022/02/17 14:48:45;;;;;;;3.08;1.48;;;20.60;58.10;;;;;;20966867;28;20052;-53
2022/02/17 14:58:47;;;;;;;2.22;1.35;;;20.50;57.90;;;;;;20956859;28;20084;-55
2022/02/17 15:08:48;;;;;;;3.30;1.45;;;20.50;58.00;;;;;;20999915;28;20052;-55
2022/02/17 15:18:49;;;;;;;2.28;1.30;;;20.50;58.10;;;;;;20918872;28;20052;-53
2022/02/17 15:28:52;;;;;;;4.18;1.73;;;20.40;58.20;;;;;;20919817;28;20454;-54
2022/02/17 15:38:53;;;;;;;3.05;1.60;;;20.30;58.40;;;;;;20973192;28;20477;-51
2022/02/17 15:48:55;;;;;;;5.70;3.33;;;20.30;58.30;;;;;;20957136;28;20051;-53
2022/02/17 15:58:57;;;;;;;6.28;3.45;;;20.40;57.40;;;;;;20988208;28;20135;-53
2022/02/17 16:08:59;;;;;;;5.07;2.90;;;20.70;55.60;;;;;;20928305;28;20146;-51
2022/02/17 16:19:02;;;;;;;5.32;2.15;;;20.90;54.40;;;;;;20914113;28;20199;-50
2022/02/17 16:29:03;;;;;;;3.50;2.00;;;21.00;54.00;;;;;;20944992;28;20123;-51
2022/02/17 16:39:12;;;;;;;6.63;2.35;;;21.00;54.20;;;;;;20954022;28;20471;-51
2022/02/17 16:49:18;;;;;;;3.50;2.03;;;20.90;54.50;;;;;;20890316;28;20143;-50
2022/02/17 16:59:20;;;;;;;4.93;2.03;;;20.70;54.90;;;;;;20983752;28;20049;-52
2022/02/17 17:09:22;;;;;;;3.08;1.92;;;20.60;55.40;;;;;;20950629;28;20139;-59
2022/02/17 17:19:24;;;;;;;3.42;1.80;;;20.60;55.90;;;;;;20948097;28;20174;-58
2022/02/17 17:38:56;;;;;;;3.40;1.40;;;20.80;55.60;;;;;;21120160;27;20899;-57
2022/02/17 17:48:57;;;;;;;2.60;1.63;;;21.40;54.50;;;;;;21040611;28;20209;-57
2022/02/17 17:58:59;;;;;;;3.30;1.60;;;21.50;54.20;;;;;;21056881;28;20052;-57
2022/02/17 18:09:01;;;;;;;2.50;1.30;;;21.40;54.40;;;;;;21056063;28;20117;-56
2022/02/17 18:19:03;;;;;;;2.28;1.38;;;21.20;54.70;;;;;;21055250;28;20492;-56
2022/02/17 18:29:04;;;;;;;2.63;1.55;;;21.00;55.10;;;;;;21060320;28;20093;-57
2022/02/17 18:39:06;;;;;;;3.50;1.50;;;20.80;55.60;;;;;;21124615;28;20050;-57
2022/02/17 18:49:08;;;;;;;2.63;1.23;;;20.50;56.20;;;;;;21058685;28;20414;-57
2022/02/17 18:59:09;;;;;;;7.18;3.17;;;20.40;56.60;;;;;;21051900;28;20051;-57
2022/02/17 19:09:11;;;;;;;11.55;6.10;;;20.20;56.30;;;;;;21052890;28;20052;-56
2022/02/17 19:19:13;;;;;;;9.70;5.45;;;20.30;55.80;;;;;;21019590;28;20074;-57
2022/02/17 19:29:14;;;;;;;8.43;5.28;;;21.60;54.80;;;;;;20999649;28;20043;-56
2022/02/17 19:39:16;;;;;;;11.63;5.35;;;22.90;53.80;;;;;;21042802;28;20081;-57
2022/02/17 19:49:18;;;;;;;10.90;5.40;;;23.70;53.00;;;;;;21065101;28;20131;-58
2022/02/17 19:59:19;;;;;;;8.55;4.68;;;23.90;52.70;;;;;;21037990;28;20109;-59
2022/02/17 20:09:21;;;;;;;16.98;8.57;;;23.70;52.40;;;;;;21048114;28;20055;-58
2022/02/17 20:19:23;;;;;;;12.80;7.20;;;23.30;51.70;;;;;;21052663;28;20388;-59
2022/02/17 20:29:25;;;;;;;15.57;8.57;;;22.90;51.40;;;;;;21032381;28;20043;-59
2022/02/17 20:39:26;;;;;;;19.52;8.15;;;22.40;52.30;;;;;;21019355;28;20127;-59
2022/02/17 20:59:48;;;;;;;15.07;8.13;;;21.60;54.60;;;;;;21043634;28;20068;-60
2022/02/17 21:09:49;;;;;;;15.90;7.82;;;21.30;55.30;;;;;;21024482;28;20207;-59
2022/02/17 21:19:51;;;;;;;11.38;7.85;;;21.10;56.10;;;;;;21044148;28;20123;-59
2022/02/17 21:29:53;;;;;;;22.17;8.60;;;20.80;56.60;;;;;;21031928;28;20056;-59
2022/02/17 21:39:55;;;;;;;12.40;7.47;;;20.60;57.20;;;;;;21037471;28;20122;-58
2022/02/17 21:49:57;;;;;;;11.98;6.50;;;20.40;57.80;;;;;;21053426;28;20101;-57
2022/02/17 21:59:59;;;;;;;10.80;6.38;;;20.20;57.70;;;;;;21011739;28;20056;-58
2022/02/17 22:10:01;;;;;;;13.68;6.88;;;20.10;58.10;;;;;;21028468;28;20052;-60
2022/02/17 22:20:04;;;;;;;10.65;6.15;;;20.10;58.50;;;;;;21049238;28;20048;-59
2022/02/17 22:30:09;;;;;;;13.45;9.10;;;19.90;58.90;;;;;;21040048;28;20048;-57
2022/02/17 22:40:11;;;;;;;26.38;12.18;;;19.90;58.00;;;;;;21034719;28;20542;-58
2022/02/17 22:50:12;;;;;;;35.03;14.82;;;19.70;57.00;;;;;;21064134;28;20384;-58
2022/02/17 23:00:15;;;;;;;29.52;12.95;;;19.70;57.10;;;;;;21040465;28;20055;-57
2022/02/17 23:20:37;;;;;;;31.35;12.85;;;19.50;57.70;;;;;;21075955;28;20044;-57
2022/02/17 23:30:42;;;;;;;28.35;12.27;;;19.40;58.00;;;;;;21043010;28;20059;-57
2022/02/17 23:40:44;;;;;;;25.38;10.90;;;19.30;58.40;;;;;;21071859;28;20429;-56
2022/02/17 23:50:46;;;;;;;21.38;10.30;;;19.20;58.70;;;;;;21030641;28;20052;-57
